createdAt,value
2022-08-12T00:01:05.505Z,3.20
2022-08-12T00:03:51.630Z,3.30
2022-08-12T00:06:40.413Z,3.60
2022-08-12T00:09:26.813Z,3.13
2022-08-12T00:12:13.060Z,3.53
2022-08-12T00:14:59.453Z,3.28
2022-08-12T00:17:45.103Z,3.38
2022-08-12T00:20:31.068Z,3.33
2022-08-12T00:23:18.295Z,3.33
2022-08-12T00:26:22.224Z,3.13
2022-08-12T00:29:11.234Z,3.13
2022-08-12T00:31:57.693Z,3.05
2022-08-12T00:34:43.533Z,3.03
2022-08-12T00:37:28.798Z,3.10
2022-08-12T00:40:16.323Z,3.03
2022-08-12T00:42:43.435Z,2.92
2022-08-12T00:45:12.005Z,3.17
2022-08-12T00:47:40.735Z,2.95
2022-08-12T00:50:17.712Z,2.80
2022-08-12T00:52:47.110Z,2.90
2022-08-12T00:55:17.833Z,2.80
2022-08-12T00:57:49.943Z,2.80
2022-08-12T01:00:21.477Z,2.95
2022-08-12T01:02:53.372Z,3.05
2022-08-12T01:05:40.724Z,2.90
2022-08-12T01:08:26.626Z,3.20
2022-08-12T01:11:15.125Z,2.95
2022-08-12T01:13:48.222Z,3.20
2022-08-12T01:16:18.110Z,2.97
2022-08-12T01:18:46.419Z,2.78
2022-08-12T01:21:20.534Z,3.13
2022-08-12T01:24:30.195Z,3.20
2022-08-12T01:26:55.903Z,2.78
2022-08-12T01:29:33.162Z,2.92
2022-08-12T01:32:05.513Z,2.85
2022-08-12T01:34:38.531Z,3.13
2022-08-12T01:37:09.382Z,2.90
2022-08-12T01:40:33.881Z,3.03
2022-08-12T01:42:35.358Z,2.80
2022-08-12T01:45:04.151Z,3.00
2022-08-12T01:47:43.131Z,3.33
2022-08-12T01:50:22.334Z,3.05
2022-08-12T01:52:59.112Z,2.92
2022-08-12T01:55:30.159Z,3.03
2022-08-12T01:58:11.615Z,2.97
2022-08-12T02:00:55.377Z,3.50
2022-08-12T02:03:59.911Z,2.90
2022-08-12T02:06:52.712Z,3.20
2022-08-12T02:09:54.254Z,2.60
2022-08-12T02:12:36.140Z,3.10
2022-08-12T02:15:17.937Z,3.20
2022-08-12T02:18:02.533Z,3.20
2022-08-12T02:20:52.068Z,3.22
2022-08-12T02:23:27.037Z,2.83
2022-08-12T02:26:00.502Z,3.45
2022-08-12T02:28:29.098Z,3.35
2022-08-12T02:31:04.900Z,3.17
2022-08-12T02:33:33.798Z,3.20
2022-08-12T02:36:03.552Z,2.75
2022-08-12T02:38:32.215Z,3.22
2022-08-12T02:41:04.896Z,2.83
2022-08-12T02:43:38.442Z,2.97
2022-08-12T02:46:14.002Z,2.60
2022-08-12T02:48:53.074Z,3.10
2022-08-12T02:51:24.350Z,2.85
2022-08-12T02:54:04.216Z,3.00
2022-08-12T02:56:34.671Z,3.00
2022-08-12T02:59:03.018Z,2.88
2022-08-12T03:01:34.374Z,2.85
2022-08-12T03:04:20.321Z,3.15
2022-08-12T03:06:56.491Z,2.97
2022-08-12T03:09:26.708Z,3.50
2022-08-12T03:12:05.176Z,3.20
2022-08-12T03:14:36.899Z,2.90
2022-08-12T03:17:18.783Z,3.28
2022-08-12T03:20:09.169Z,2.90
2022-08-12T03:22:40.764Z,2.90
2022-08-12T03:25:16.244Z,2.80
2022-08-12T03:27:49.944Z,3.30
2022-08-12T03:30:19.925Z,3.05
2022-08-12T03:32:51.827Z,2.95
2022-08-12T03:35:40.433Z,2.70
2022-08-12T03:38:16.067Z,2.95
2022-08-12T03:41:15.275Z,2.72
2022-08-12T03:44:10.778Z,3.20
2022-08-12T03:47:00.690Z,2.80
2022-08-12T03:49:47.752Z,2.65
2022-08-12T03:52:33.409Z,3.45
2022-08-12T03:55:19.151Z,3.20
2022-08-12T03:58:08.108Z,3.25
2022-08-12T04:00:38.685Z,3.30
2022-08-12T04:03:26.943Z,2.70
2022-08-12T04:05:57.016Z,3.22
2022-08-12T04:08:27.032Z,3.38
2022-08-12T04:11:13.526Z,3.47
2022-08-12T04:13:41.856Z,3.15
2022-08-12T04:16:13.656Z,2.95
2022-08-12T04:18:43.105Z,2.80
2022-08-12T04:21:12.590Z,3.67
2022-08-12T04:23:46.343Z,3.17
2022-08-12T04:26:16.706Z,3.17
2022-08-12T04:28:45.991Z,3.60
2022-08-12T04:31:14.324Z,3.13
2022-08-12T04:33:43.544Z,3.30
2022-08-12T04:36:13.202Z,3.53
2022-08-12T04:38:41.666Z,3.85
2022-08-12T04:41:10.920Z,3.80
2022-08-12T04:44:00.422Z,3.47
2022-08-12T04:46:34.480Z,4.45
2022-08-12T04:49:03.697Z,3.92
2022-08-12T04:51:34.065Z,3.50
2022-08-12T04:54:03.056Z,3.25
2022-08-12T04:56:35.322Z,3.35
2022-08-12T04:59:04.413Z,3.22
2022-08-12T05:01:32.895Z,3.65
2022-08-12T05:04:02.790Z,3.58
2022-08-12T05:06:32.752Z,3.72
2022-08-12T05:09:00.926Z,3.40
2022-08-12T05:11:29.690Z,3.72
2022-08-12T05:14:01.003Z,3.65
2022-08-12T05:16:34.315Z,3.38
2022-08-12T05:19:05.360Z,3.80
2022-08-12T05:21:42.658Z,3.42
2022-08-12T05:24:10.723Z,3.33
2022-08-12T05:26:38.800Z,3.30
2022-08-12T05:30:05.707Z,3.58
2022-08-12T05:31:58.291Z,3.60
2022-08-12T05:34:29.002Z,3.53
2022-08-12T05:36:59.088Z,3.60
2022-08-12T05:39:27.166Z,3.35
2022-08-12T05:41:55.745Z,3.40
2022-08-12T05:44:23.798Z,3.15
2022-08-12T05:46:51.882Z,3.85
2022-08-12T05:49:20.003Z,3.60
2022-08-12T05:51:48.072Z,3.58
2022-08-12T05:54:21.898Z,3.42
2022-08-12T05:56:55.581Z,3.00
2022-08-12T05:59:24.075Z,3.33
2022-08-12T06:02:11.290Z,5.28
2022-08-12T06:04:41.995Z,3.40
2022-08-12T06:07:59.408Z,3.40
2022-08-12T06:10:02.016Z,3.50
2022-08-12T06:12:30.917Z,3.80
2022-08-12T06:14:59.118Z,4.03
2022-08-12T06:17:27.197Z,3.90
2022-08-12T06:20:26.366Z,3.80
2022-08-12T06:22:44.299Z,3.47
2022-08-12T06:25:21.588Z,3.78
2022-08-12T06:28:06.903Z,3.97
2022-08-12T06:30:39.528Z,3.90
2022-08-12T06:33:22.162Z,3.83
2022-08-12T06:35:57.814Z,3.80
2022-08-12T06:38:28.412Z,3.83
2022-08-12T06:41:16.470Z,3.40
2022-08-12T06:44:05.672Z,3.63
2022-08-12T06:46:33.426Z,3.53
2022-08-12T06:49:01.564Z,3.70
2022-08-12T06:51:31.063Z,3.80
2022-08-12T06:54:00.412Z,3.88
2022-08-12T06:57:01.753Z,4.00
2022-08-12T06:59:21.410Z,4.00
2022-08-12T07:01:51.492Z,3.90
2022-08-12T07:04:38.401Z,3.53
2022-08-12T07:07:08.258Z,3.97
2022-08-12T07:10:05.057Z,4.00
2022-08-12T07:12:28.138Z,3.83
2022-08-12T07:14:57.208Z,3.70
2022-08-12T07:17:25.311Z,4.20
2022-08-12T07:19:55.492Z,4.18
2022-08-12T07:22:26.212Z,4.32
2022-08-12T07:25:08.120Z,3.42
2022-08-12T07:27:40.867Z,4.15
2022-08-12T07:30:10.941Z,4.15
2022-08-12T07:32:39.330Z,4.07
2022-08-12T07:35:08.327Z,4.32
2022-08-12T07:37:41.931Z,4.05
2022-08-12T07:40:12.214Z,3.95
2022-08-12T07:42:44.138Z,3.78
2022-08-12T07:45:13.398Z,4.03
2022-08-12T07:47:43.437Z,3.92
2022-08-12T07:50:12.772Z,4.43
2022-08-12T07:52:43.367Z,4.25
2022-08-12T07:55:12.910Z,4.03
2022-08-12T07:57:57.825Z,4.38
2022-08-12T08:00:26.537Z,3.90
2022-08-12T08:02:55.078Z,3.78
2022-08-12T08:05:25.821Z,4.43
2022-08-12T08:08:01.024Z,4.38
2022-08-12T08:10:29.649Z,3.92
2022-08-12T08:12:59.441Z,3.88
2022-08-12T08:16:00.750Z,4.10
2022-08-12T08:18:25.926Z,3.63
2022-08-12T08:20:56.724Z,3.45
2022-08-12T08:23:46.926Z,3.50
2022-08-12T08:26:24.865Z,3.63
2022-08-12T08:28:54.362Z,3.08
2022-08-12T08:31:22.636Z,3.50
2022-08-12T08:34:04.983Z,3.50
2022-08-12T08:36:39.670Z,3.58
2022-08-12T08:39:08.270Z,3.20
2022-08-12T08:42:16.362Z,3.08
2022-08-12T08:44:43.941Z,3.63
2022-08-12T08:47:13.333Z,3.80
2022-08-12T08:49:42.597Z,3.20
2022-08-12T08:52:12.542Z,3.20
2022-08-12T08:55:00.539Z,2.90
2022-08-12T08:57:43.875Z,3.03
2022-08-12T09:00:19.128Z,3.00
2022-08-12T09:02:58.473Z,3.00
2022-08-12T09:05:28.304Z,3.05
2022-08-12T09:08:26.587Z,3.25
2022-08-12T09:11:52.485Z,2.83
2022-08-12T09:14:11.039Z,3.15
2022-08-12T09:16:43.166Z,3.42
2022-08-12T09:19:26.902Z,3.05
2022-08-12T09:21:57.319Z,2.95
2022-08-12T09:24:28.468Z,3.00
2022-08-12T09:26:58.777Z,2.60
2022-08-12T09:30:09.087Z,3.00
2022-08-12T09:32:31.336Z,2.95
2022-08-12T09:35:22.013Z,3.42
2022-08-12T09:37:57.674Z,2.90
2022-08-12T09:40:56.122Z,3.38
2022-08-12T09:43:34.891Z,3.40
2022-08-12T09:46:06.087Z,2.88
2022-08-12T09:48:56.193Z,2.90
2022-08-12T09:51:37.693Z,3.88
2022-08-12T09:54:31.150Z,3.28
2022-08-12T09:56:59.842Z,2.95
2022-08-12T10:00:12.677Z,2.90
2022-08-12T10:02:45.195Z,3.42
2022-08-12T10:05:13.465Z,3.22
2022-08-12T10:07:42.195Z,3.40
2022-08-12T10:10:24.762Z,3.55
2022-08-12T10:13:13.957Z,3.30
2022-08-12T10:16:01.540Z,3.40
2022-08-12T10:18:32.777Z,3.38
2022-08-12T10:21:09.431Z,3.45
2022-08-12T10:23:40.903Z,3.50
2022-08-12T10:26:36.696Z,3.33
2022-08-12T10:30:38.394Z,3.72
2022-08-12T10:32:21.142Z,3.65
2022-08-12T10:34:53.096Z,3.75
2022-08-12T10:38:34.847Z,3.75
2022-08-12T10:40:15.698Z,3.60
2022-08-12T10:43:08.060Z,3.83
2022-08-12T10:45:38.312Z,3.70
2022-08-12T10:48:20.387Z,3.50
2022-08-12T10:51:02.279Z,3.78
2022-08-12T10:53:45.500Z,4.03
2022-08-12T10:56:15.610Z,4.18
2022-08-12T10:58:46.223Z,4.40
2022-08-12T11:01:49.197Z,4.07
2022-08-12T11:04:35.477Z,4.03
2022-08-12T11:07:08.178Z,4.20
2022-08-12T11:09:58.491Z,4.47
2022-08-12T11:12:54.560Z,4.80
2022-08-12T11:15:33.427Z,4.28
2022-08-12T11:18:12.101Z,4.30
2022-08-12T11:20:47.634Z,4.32
2022-08-12T11:23:25.149Z,4.72
2022-08-12T11:26:07.411Z,4.10
2022-08-12T11:28:37.145Z,4.25
2022-08-12T11:31:09.705Z,4.32
2022-08-12T11:34:05.705Z,4.40
2022-08-12T11:36:29.542Z,4.70
2022-08-12T11:39:04.390Z,4.55
2022-08-12T11:41:39.145Z,4.85
2022-08-12T11:44:35.703Z,4.70
2022-08-12T11:46:56.117Z,5.00
2022-08-12T11:49:31.264Z,4.00
2022-08-12T11:52:01.687Z,4.50
2022-08-12T11:54:30.313Z,4.80
2022-08-12T11:57:02.256Z,4.82
2022-08-12T12:02:21.324Z,4.78
2022-08-12T12:04:52.962Z,4.57
2022-08-12T12:08:38.648Z,4.65
2022-08-12T12:10:13.085Z,4.53
2022-08-12T12:12:49.637Z,5.03
2022-08-12T12:15:24.678Z,4.55
2022-08-12T12:17:55.008Z,4.55
2022-08-12T12:20:26.133Z,5.03
2022-08-12T12:22:58.499Z,4.82
2022-08-12T12:26:06.585Z,4.38
2022-08-12T12:28:37.195Z,4.97
2022-08-12T12:31:14.574Z,4.95
2022-08-12T12:33:57.380Z,4.90
2022-08-12T12:36:30.152Z,4.70
2022-08-12T12:38:59.919Z,4.50
2022-08-12T12:42:41.719Z,5.05
2022-08-12T12:44:25.519Z,5.38
2022-08-12T12:46:58.273Z,5.15
2022-08-12T12:49:27.611Z,4.97
2022-08-12T12:52:19.376Z,4.30
2022-08-12T12:54:52.665Z,5.30
2022-08-12T12:57:36.406Z,5.13
2022-08-12T13:00:18.943Z,4.97
2022-08-12T13:02:54.307Z,5.50
2022-08-12T13:05:28.015Z,5.50
2022-08-12T13:08:01.121Z,5.10
2022-08-12T13:10:37.063Z,5.63
2022-08-12T13:14:12.013Z,5.72
2022-08-12T13:15:59.389Z,4.88
2022-08-12T13:18:31.575Z,4.65
2022-08-12T13:20:59.921Z,4.90
2022-08-12T13:23:36.476Z,4.88
2022-08-12T13:26:14.214Z,5.07
2022-08-12T13:28:44.667Z,4.80
2022-08-12T13:31:24.872Z,4.75
2022-08-12T13:34:32.871Z,4.47
2022-08-12T13:36:42.236Z,4.80
2022-08-12T13:39:10.768Z,4.97
2022-08-12T13:41:39.107Z,4.82
2022-08-12T13:44:10.660Z,5.05
2022-08-12T13:46:42.198Z,4.57
2022-08-12T13:49:17.484Z,4.88
2022-08-12T13:51:53.771Z,4.53
2022-08-12T13:54:22.294Z,5.38
2022-08-12T13:56:51.544Z,5.32
2022-08-12T13:59:24.457Z,5.15
2022-08-12T14:01:56.824Z,5.30
2022-08-12T14:04:25.110Z,5.32
2022-08-12T14:06:55.456Z,5.93
2022-08-12T14:09:23.587Z,5.75
2022-08-12T14:11:59.312Z,5.32
2022-08-12T14:14:31.091Z,5.18
2022-08-12T14:17:08.162Z,5.88
2022-08-12T14:19:48.705Z,5.30
2022-08-12T14:22:20.939Z,5.18
2022-08-12T14:24:54.481Z,5.95
2022-08-12T14:28:02.827Z,5.40
2022-08-12T14:30:15.366Z,5.82
2022-08-12T14:32:46.802Z,5.85
2022-08-12T14:35:15.122Z,5.93
2022-08-12T14:37:57.745Z,6.10
2022-08-12T14:40:29.089Z,5.93
2022-08-12T14:42:58.899Z,6.32
2022-08-12T14:45:45.091Z,6.10
2022-08-12T14:48:19.696Z,6.38
2022-08-12T14:51:09.843Z,5.70
2022-08-12T14:55:13.920Z,7.00
2022-08-12T14:59:58.295Z,5.95
2022-08-12T15:02:25.980Z,6.68
2022-08-12T15:04:58.958Z,6.43
2022-08-12T15:07:33.405Z,6.90
2022-08-12T15:10:13.431Z,6.68
2022-08-12T15:12:41.868Z,6.68
2022-08-12T15:15:11.344Z,6.57
2022-08-12T15:17:39.962Z,6.63
2022-08-12T15:20:31.364Z,6.70
2022-08-12T15:22:58.788Z,6.68
2022-08-12T15:25:27.282Z,7.13
2022-08-12T15:28:03.835Z,6.93
2022-08-12T15:30:37.070Z,6.55
2022-08-12T15:33:12.570Z,6.80
2022-08-12T15:35:52.265Z,7.28
2022-08-12T15:38:24.988Z,6.60
2022-08-12T15:40:55.074Z,6.90
2022-08-12T15:44:15.956Z,6.60
2022-08-12T15:46:15.566Z,6.30
2022-08-12T15:48:47.038Z,6.53
2022-08-12T15:51:58.724Z,6.70
2022-08-12T15:54:34.114Z,5.93
2022-08-12T15:57:08.117Z,5.43
2022-08-12T16:00:02.284Z,5.85
2022-08-12T16:02:29.930Z,6.30
2022-08-12T16:04:58.606Z,6.53
2022-08-12T16:07:32.554Z,5.93
2022-08-12T16:10:10.558Z,5.47
2022-08-12T16:12:41.517Z,5.65
2022-08-12T16:15:10.710Z,5.75
2022-08-12T16:18:14.468Z,5.35
2022-08-12T16:20:33.279Z,4.47
2022-08-12T16:23:26.553Z,4.47
2022-08-12T16:26:05.306Z,4.20
2022-08-12T16:28:35.318Z,5.00
2022-08-12T16:31:03.688Z,4.88
2022-08-12T16:33:58.677Z,5.10
2022-08-12T16:36:25.937Z,5.50
2022-08-12T16:38:55.386Z,5.70
2022-08-12T16:41:23.701Z,5.22
2022-08-12T16:43:53.446Z,5.97
2022-08-12T16:46:32.134Z,6.28
2022-08-12T16:49:04.120Z,6.30
2022-08-12T16:51:40.532Z,6.78
2022-08-12T16:54:14.191Z,6.82
2022-08-12T16:56:55.249Z,7.43
2022-08-12T16:59:31.187Z,6.40
2022-08-12T17:02:30.096Z,7.47
2022-08-12T17:05:03.629Z,8.45
2022-08-12T17:07:37.159Z,10.32
2022-08-12T17:10:10.192Z,9.38
2022-08-12T17:12:40.333Z,9.95
2022-08-12T17:15:50.219Z,10.45
2022-08-12T17:18:42.397Z,9.90
2022-08-12T17:20:48.669Z,9.35
2022-08-12T17:23:19.362Z,9.30
2022-08-12T17:25:52.132Z,8.77
2022-08-12T17:28:22.632Z,9.57
2022-08-12T17:30:57.227Z,9.77
2022-08-12T17:33:33.509Z,9.70
2022-08-12T17:36:03.673Z,11.40
2022-08-12T17:38:34.789Z,10.02
2022-08-12T17:41:22.764Z,10.60
2022-08-12T17:43:58.436Z,9.95
2022-08-12T17:46:33.113Z,9.50
2022-08-12T17:49:18.965Z,9.25
2022-08-12T17:52:02.827Z,9.07
2022-08-12T17:54:31.740Z,9.13
2022-08-12T17:57:12.126Z,9.65
2022-08-12T17:59:48.880Z,10.25
2022-08-12T18:02:25.641Z,9.25
2022-08-12T18:05:04.781Z,10.35
2022-08-12T18:07:35.989Z,9.98
2022-08-12T18:10:05.020Z,10.35
2022-08-12T18:12:38.586Z,9.38
2022-08-12T18:15:10.442Z,10.25
2022-08-12T18:17:59.932Z,8.88
2022-08-12T18:20:30.966Z,9.52
2022-08-12T18:23:06.120Z,9.48
2022-08-12T18:26:15.969Z,9.50
2022-08-12T18:28:43.496Z,9.55
2022-08-12T18:31:14.193Z,9.15
2022-08-12T18:33:45.815Z,9.65
2022-08-12T18:36:22.512Z,10.00
2022-08-12T18:38:56.043Z,10.90
2022-08-12T18:41:34.204Z,12.23
2022-08-12T18:44:09.793Z,10.68
2022-08-12T18:46:54.175Z,11.10
2022-08-12T18:49:30.394Z,10.95
2022-08-12T18:52:04.341Z,11.88
2022-08-12T18:54:36.088Z,11.75
2022-08-12T18:57:19.770Z,12.38
2022-08-12T19:00:06.494Z,12.05
2022-08-12T19:02:39.912Z,11.95
2022-08-12T19:05:11.230Z,11.95
2022-08-12T19:07:49.224Z,11.52
2022-08-12T19:10:26.652Z,11.55
2022-08-12T19:13:21.047Z,12.07
2022-08-12T19:15:54.941Z,12.55
2022-08-12T19:18:30.230Z,11.93
2022-08-12T19:21:06.139Z,12.05
2022-08-12T19:23:40.377Z,11.88
2022-08-12T19:26:12.575Z,11.65
2022-08-12T19:28:41.497Z,11.98
2022-08-12T19:31:44.503Z,12.00
2022-08-12T19:37:22.632Z,12.57
2022-08-12T19:40:07.940Z,11.10
2022-08-12T19:42:42.528Z,12.63
2022-08-12T19:45:15.616Z,10.80
2022-08-12T19:47:46.688Z,10.60
2022-08-12T19:50:20.292Z,11.30
2022-08-12T19:52:51.022Z,10.80
2022-08-12T19:55:22.551Z,10.70
2022-08-12T19:58:02.851Z,10.20
2022-08-12T20:00:35.016Z,11.23
2022-08-12T20:03:06.366Z,11.27
2022-08-12T20:06:05.389Z,11.20
2022-08-12T20:08:34.525Z,11.82
2022-08-12T20:12:11.210Z,11.35
2022-08-12T20:14:00.473Z,10.80
2022-08-12T20:16:51.774Z,9.82
2022-08-12T20:19:18.791Z,10.25
2022-08-12T20:21:47.095Z,9.55
2022-08-12T20:24:15.551Z,9.50
2022-08-12T20:26:44.104Z,9.35
2022-08-12T20:29:14.865Z,9.10
2022-08-12T20:31:44.800Z,9.38
2022-08-12T20:34:12.903Z,9.20
2022-08-12T20:36:45.029Z,8.90
2022-08-12T20:39:34.324Z,9.10
2022-08-12T20:42:07.266Z,9.40
2022-08-12T20:44:39.862Z,9.30
2022-08-12T20:47:17.712Z,9.10
2022-08-12T20:49:46.762Z,9.25
2022-08-12T20:52:29.887Z,9.57
2022-08-12T20:54:58.827Z,9.82
2022-08-12T20:57:38.226Z,9.02
2022-08-12T21:00:18.144Z,8.32
2022-08-12T21:02:51.043Z,8.98
2022-08-12T21:06:09.352Z,8.00
2022-08-12T21:08:27.328Z,7.68
2022-08-12T21:10:58.972Z,8.48
2022-08-12T21:13:29.512Z,8.63
2022-08-12T21:16:10.007Z,8.52
2022-08-12T21:18:38.654Z,10.65
2022-08-12T21:21:23.778Z,9.25
2022-08-12T21:23:56.221Z,8.45
2022-08-12T21:26:26.412Z,8.57
2022-08-12T21:29:01.338Z,8.40
2022-08-12T21:32:39.157Z,8.23
2022-08-12T21:34:26.167Z,8.35
2022-08-12T21:37:01.791Z,8.75
2022-08-12T21:39:51.966Z,8.57
2022-08-12T21:42:20.981Z,8.10
2022-08-12T21:45:45.778Z,8.93
2022-08-12T21:47:45.036Z,8.63
2022-08-12T21:50:18.221Z,8.93
2022-08-12T21:52:49.204Z,8.70
2022-08-12T21:55:20.479Z,8.77
2022-08-12T21:57:53.426Z,8.30
2022-08-12T22:00:23.942Z,8.23
2022-08-12T22:04:02.140Z,8.88
2022-08-12T22:06:31.553Z,8.23
2022-08-12T22:09:15.649Z,8.35
2022-08-12T22:11:49.360Z,8.77
2022-08-12T22:14:25.493Z,8.77
2022-08-12T22:16:56.097Z,7.97
2022-08-12T22:19:24.364Z,8.52
2022-08-12T22:21:54.803Z,8.05
2022-08-12T22:24:26.319Z,8.50
2022-08-12T22:26:59.496Z,8.60
2022-08-12T22:30:03.146Z,8.45
2022-08-12T22:32:31.592Z,8.60
2022-08-12T22:35:22.303Z,9.57
2022-08-12T22:37:57.230Z,9.73
2022-08-12T22:40:25.372Z,9.23
2022-08-12T22:43:15.291Z,9.57
2022-08-12T22:46:01.874Z,8.70
2022-08-12T22:48:30.702Z,9.07
2022-08-12T22:50:59.538Z,9.27
2022-08-12T22:53:36.513Z,10.30
2022-08-12T22:56:07.130Z,9.63
2022-08-12T22:58:40.615Z,9.52
2022-08-12T23:01:10.976Z,9.68
2022-08-12T23:03:48.490Z,9.57
2022-08-12T23:06:20.240Z,10.43
2022-08-12T23:08:48.553Z,10.27
2022-08-12T23:11:17.986Z,9.20
2022-08-12T23:13:57.041Z,10.35
2022-08-12T23:16:31.498Z,9.45
2022-08-12T23:19:10.691Z,9.90
2022-08-12T23:22:06.224Z,9.57
2022-08-12T23:24:41.121Z,9.43
2022-08-12T23:27:50.981Z,10.63
2022-08-12T23:30:32.408Z,10.45
2022-08-12T23:33:13.512Z,10.30
2022-08-12T23:35:58.966Z,10.45
2022-08-12T23:38:32.988Z,10.50
2022-08-12T23:41:02.015Z,9.70
2022-08-12T23:43:38.966Z,10.88
2022-08-12T23:46:11.501Z,10.57
2022-08-12T23:48:40.938Z,10.63
2022-08-12T23:51:23.794Z,10.25
2022-08-12T23:53:55.280Z,10.40
2022-08-12T23:56:24.749Z,10.68
2022-08-12T23:58:55.191Z,10.95
